createdAt,value
2022-11-06T00:01:49.498Z,96570.41
2022-11-06T00:04:51.379Z,96565.13
2022-11-06T00:07:53.237Z,96549.19
2022-11-06T00:10:55.253Z,96567.22
2022-11-06T00:13:57.545Z,96563.13
2022-11-06T00:16:59.329Z,96570.22
2022-11-06T00:20:01.103Z,96550.81
2022-11-06T00:23:03.093Z,96551.78
2022-11-06T00:26:06.860Z,96546.50
2022-11-06T00:29:08.640Z,96555.59
2022-11-06T00:32:10.509Z,96563.19
2022-11-06T00:35:12.332Z,96555.72
2022-11-06T00:38:14.598Z,96556.03
2022-11-06T00:41:17.554Z,96554.47
2022-11-06T00:44:22.073Z,96564.59
2022-11-06T00:57:12.246Z,96557.34
2022-11-06T01:00:14.124Z,96562.72
2022-11-06T01:03:15.694Z,96563.66
2022-11-06T01:06:20.112Z,96555.03
2022-11-06T01:09:24.394Z,96559.47
2022-11-06T01:12:25.930Z,96555.34
2022-11-06T01:15:27.454Z,96557.13
2022-11-06T01:18:30.077Z,96564.34
2022-11-06T01:21:34.989Z,96572.38
2022-11-06T01:24:36.809Z,96568.78
2022-11-06T01:27:38.420Z,96555.69
2022-11-06T01:30:39.957Z,96552.09
2022-11-06T01:33:41.932Z,96559.19
2022-11-06T01:36:43.953Z,96546.91
2022-11-06T01:39:45.452Z,96550.50
2022-11-06T01:42:46.982Z,96550.59
2022-11-06T01:45:50.754Z,96547.34
2022-11-06T01:48:58.013Z,96539.53
2022-11-06T01:52:04.732Z,96529.50
2022-11-06T01:55:12.855Z,96534.78
2022-11-06T01:58:17.395Z,96522.03
2022-11-06T02:01:19.549Z,96527.53
2022-11-06T02:04:24.724Z,96532.28
2022-11-06T02:07:26.811Z,96533.47
2022-11-06T02:10:29.672Z,96519.03
2022-11-06T02:13:49.106Z,96521.03
2022-11-06T02:17:01.960Z,96510.06
2022-11-06T02:20:03.456Z,96506.75
2022-11-06T02:23:47.146Z,96508.91
2022-11-06T02:27:12.584Z,96513.31
2022-11-06T02:30:16.717Z,96509.00
2022-11-06T02:33:27.657Z,96510.06
2022-11-06T02:36:34.021Z,96507.53
2022-11-06T02:39:39.005Z,96503.31
2022-11-06T02:42:46.431Z,96506.78
2022-11-06T02:45:55.792Z,96511.31
2022-11-06T02:49:04.107Z,96514.09
2022-11-06T02:52:11.345Z,96518.53
2022-11-06T02:55:19.823Z,96507.13
2022-11-06T02:58:38.978Z,96504.59
2022-11-06T03:01:49.720Z,96496.75
2022-11-06T03:05:08.773Z,96509.88
2022-11-06T03:08:24.097Z,96518.63
2022-11-06T03:11:29.725Z,96516.72
2022-11-06T03:14:36.481Z,96515.03
2022-11-06T03:17:37.982Z,96516.00
2022-11-06T03:20:55.576Z,96519.56
2022-11-06T03:24:10.264Z,96522.31
2022-11-06T03:27:17.011Z,96512.50
2022-11-06T03:30:19.213Z,96509.97
2022-11-06T03:33:38.214Z,96507.56
2022-11-06T03:36:47.526Z,96501.63
2022-11-06T03:39:53.883Z,96504.69
2022-11-06T03:43:01.147Z,96504.28
2022-11-06T03:46:11.241Z,96507.75
2022-11-06T03:49:18.609Z,96498.34
2022-11-06T03:52:28.771Z,96499.34
2022-11-06T03:55:37.351Z,96502.16
2022-11-06T03:58:44.421Z,96489.06
2022-11-06T04:01:48.125Z,96493.50
2022-11-06T04:04:59.636Z,96489.06
2022-11-06T04:08:20.193Z,96489.19
2022-11-06T04:11:44.506Z,96495.63
2022-11-06T04:14:50.595Z,96491.28
2022-11-06T04:17:52.145Z,96489.09
2022-11-06T04:21:24.920Z,96487.47
2022-11-06T04:25:13.543Z,96493.28
2022-11-06T04:28:34.792Z,96477.13
2022-11-06T04:32:04.025Z,96482.53
2022-11-06T04:35:29.094Z,96476.41
2022-11-06T04:39:05.103Z,96467.84
2022-11-06T04:42:18.799Z,96458.47
2022-11-06T04:45:34.659Z,96463.94
2022-11-06T04:48:38.511Z,96454.66
2022-11-06T04:51:43.326Z,96452.13
2022-11-06T04:54:46.720Z,96456.66
2022-11-06T04:57:48.528Z,96443.47
2022-11-06T05:00:51.366Z,96451.50
2022-11-06T05:03:52.957Z,96444.53
2022-11-06T05:06:54.566Z,96440.22
2022-11-06T05:09:56.110Z,96431.47
2022-11-06T05:12:57.788Z,96437.56
2022-11-06T05:16:00.176Z,96427.13
2022-11-06T05:19:01.760Z,96423.66
2022-11-06T05:22:22.116Z,96425.56
2022-11-06T05:25:29.488Z,96421.25
2022-11-06T05:28:31.324Z,96421.34
2022-11-06T05:31:32.947Z,96415.31
2022-11-06T05:34:34.465Z,96403.31
2022-11-06T05:37:36.019Z,96398.88
2022-11-06T05:40:37.533Z,96393.72
2022-11-06T05:43:39.151Z,96383.25
2022-11-06T05:46:48.817Z,96380.63
2022-11-06T05:49:51.017Z,96391.06
2022-11-06T05:52:52.547Z,96387.59
2022-11-06T05:55:54.055Z,96392.97
2022-11-06T05:58:55.579Z,96384.13
2022-11-06T06:01:58.593Z,96381.56
2022-11-06T06:05:00.197Z,96378.22
2022-11-06T06:08:01.735Z,96372.97
2022-11-06T06:11:09.949Z,96374.75
2022-11-06T06:14:11.506Z,96377.25
2022-11-06T06:17:13.054Z,96372.97
2022-11-06T06:20:14.768Z,96373.66
2022-11-06T06:23:16.263Z,96375.25
2022-11-06T06:26:17.866Z,96375.16
2022-11-06T06:29:19.403Z,96376.72
2022-11-06T06:32:20.938Z,96373.91
2022-11-06T06:35:22.478Z,96383.50
2022-11-06T06:38:24.007Z,96386.03
2022-11-06T06:41:25.538Z,96394.97
2022-11-06T06:44:27.898Z,96414.59
2022-11-06T06:47:29.417Z,96412.69
2022-11-06T06:50:31.503Z,96401.09
2022-11-06T06:53:33.241Z,96401.75
2022-11-06T06:56:35.005Z,96411.13
2022-11-06T06:59:36.796Z,96421.56
2022-11-06T07:02:38.337Z,96432.63
2022-11-06T07:05:40.210Z,96428.97
2022-11-06T07:08:41.719Z,96430.75
2022-11-06T07:11:43.250Z,96423.88
2022-11-06T07:14:44.854Z,96434.41
2022-11-06T07:17:46.617Z,96427.59
2022-11-06T07:20:48.182Z,96432.53
2022-11-06T07:23:49.696Z,96422.94
2022-11-06T07:26:51.423Z,96431.91
2022-11-06T07:29:52.960Z,96415.00
2022-11-06T07:32:54.515Z,96416.72
2022-11-06T07:35:56.505Z,96417.34
2022-11-06T07:38:58.029Z,96395.06
2022-11-06T07:41:59.588Z,96385.88
2022-11-06T07:45:08.935Z,96384.63
2022-11-06T07:48:10.547Z,96395.38
2022-11-06T07:51:12.239Z,96388.41
2022-11-06T07:54:13.813Z,96389.19
2022-11-06T07:57:15.384Z,96387.91
2022-11-06T08:00:17.172Z,96394.94
2022-11-06T08:03:19.745Z,96393.44
2022-11-06T08:06:21.315Z,96389.75
2022-11-06T08:09:25.069Z,96394.75
2022-11-06T08:12:26.731Z,96396.69
2022-11-06T08:15:28.227Z,96403.09
2022-11-06T08:18:29.741Z,96392.44
2022-11-06T08:21:31.327Z,96385.00
2022-11-06T08:24:32.867Z,96370.72
2022-11-06T08:27:34.418Z,96376.59
2022-11-06T08:30:35.985Z,96370.03
2022-11-06T08:33:39.026Z,96331.22
2022-11-06T08:36:49.300Z,96346.16
2022-11-06T08:39:51.266Z,96345.78
2022-11-06T08:42:52.848Z,96340.66
2022-11-06T08:45:54.421Z,96321.44
2022-11-06T08:48:56.009Z,96308.59
2022-11-06T08:51:57.691Z,96301.97
2022-11-06T08:54:59.215Z,96295.34
2022-11-06T08:58:01.136Z,96290.31
2022-11-06T09:01:02.916Z,96276.47
2022-11-06T09:04:05.914Z,96274.91
2022-11-06T09:07:07.846Z,96275.84
2022-11-06T09:10:09.573Z,96264.63
2022-11-06T09:13:11.919Z,96255.25
2022-11-06T09:16:15.959Z,96241.38
2022-11-06T09:19:18.005Z,96243.28
2022-11-06T09:22:19.916Z,96248.06
2022-11-06T09:25:21.920Z,96245.63
2022-11-06T09:28:23.971Z,96251.28
2022-11-06T09:31:25.684Z,96250.63
2022-11-06T09:34:27.228Z,96239.97
2022-11-06T09:37:28.746Z,96224.28
2022-11-06T09:40:52.623Z,96213.19
2022-11-06T09:44:30.604Z,96201.53
2022-11-06T09:47:37.089Z,96193.63
2022-11-06T09:50:49.875Z,96193.56
2022-11-06T09:54:01.593Z,96183.00
2022-11-06T09:57:39.082Z,96174.94
2022-11-06T10:00:41.677Z,96166.31
2022-11-06T10:03:48.760Z,96164.72
2022-11-06T10:06:50.388Z,96173.81
2022-11-06T10:09:51.880Z,96166.16
2022-11-06T10:13:04.831Z,96166.00
2022-11-06T10:16:18.372Z,96152.78
2022-11-06T10:19:47.542Z,96146.91
2022-11-06T10:23:22.012Z,96143.03
2022-11-06T10:26:33.900Z,96130.41
2022-11-06T10:30:06.485Z,96120.94
2022-11-06T10:34:02.828Z,96122.47
2022-11-06T10:37:11.930Z,96113.09
2022-11-06T10:40:24.449Z,96103.47
2022-11-06T10:43:38.680Z,96096.06
2022-11-06T10:46:51.303Z,96097.44
2022-11-06T10:49:59.139Z,96099.00
2022-11-06T10:53:22.483Z,96090.44
2022-11-06T10:56:39.511Z,96091.13
2022-11-06T10:59:41.506Z,96091.81
2022-11-06T11:02:51.353Z,96089.41
2022-11-06T11:05:52.989Z,96076.41
2022-11-06T11:08:54.606Z,96076.91
2022-11-06T11:11:56.281Z,96075.66
2022-11-06T11:15:38.190Z,96071.84
2022-11-06T11:18:39.733Z,96058.69
2022-11-06T11:21:58.893Z,96042.97
2022-11-06T11:25:02.805Z,96042.25
2022-11-06T11:28:05.103Z,96026.84
2022-11-06T11:31:06.713Z,96022.59
2022-11-06T11:34:17.525Z,96026.19
2022-11-06T11:37:30.991Z,96022.63
2022-11-06T11:40:37.802Z,96017.38
2022-11-06T11:43:40.803Z,96017.47
2022-11-06T11:46:48.306Z,96017.84
2022-11-06T11:49:50.530Z,96007.59
2022-11-06T11:53:19.993Z,95998.03
2022-11-06T11:56:42.581Z,96014.75
2022-11-06T11:59:48.572Z,96007.81
2022-11-06T12:02:58.541Z,96001.25
2022-11-06T12:06:11.350Z,96011.28
2022-11-06T12:09:13.585Z,96024.13
2022-11-06T12:12:31.264Z,96035.00
2022-11-06T12:16:00.715Z,96024.75
2022-11-06T12:19:03.245Z,96009.13
2022-11-06T12:22:17.412Z,95991.66
2022-11-06T12:25:42.459Z,95984.22
2022-11-06T12:28:47.779Z,95976.44
2022-11-06T12:31:59.502Z,95983.94
2022-11-06T12:35:13.664Z,95970.81
2022-11-06T12:38:33.975Z,95985.34
2022-11-06T12:41:43.147Z,95969.88
2022-11-06T12:44:47.162Z,95966.22
2022-11-06T12:48:02.278Z,95955.91
2022-11-06T12:51:17.451Z,95942.28
2022-11-06T12:54:55.939Z,95919.63
2022-11-06T12:58:08.815Z,95911.47
2022-11-06T13:01:25.034Z,95904.81
2022-11-06T13:04:29.599Z,95901.97
2022-11-06T13:07:52.928Z,95888.34
2022-11-06T13:11:00.145Z,95883.50
2022-11-06T13:14:23.590Z,95885.69
2022-11-06T13:17:32.206Z,95874.69
2022-11-06T13:20:39.906Z,95864.84
2022-11-06T13:23:50.263Z,95846.72
2022-11-06T13:27:01.809Z,95843.53
2022-11-06T13:30:14.907Z,95830.22
2022-11-06T13:33:31.046Z,95831.53
2022-11-06T13:36:36.897Z,95842.03
2022-11-06T13:39:44.487Z,95843.56
2022-11-06T13:42:56.609Z,95837.38
2022-11-06T13:46:16.436Z,95834.56
2022-11-06T13:49:46.555Z,95839.91
2022-11-06T13:52:58.684Z,95832.06
2022-11-06T13:56:29.823Z,95849.72
2022-11-06T13:59:52.504Z,95842.56
2022-11-06T14:03:15.497Z,95828.38
2022-11-06T14:06:22.647Z,95810.03
2022-11-06T14:09:27.531Z,95813.53
2022-11-06T14:12:29.391Z,95812.69
2022-11-06T14:15:41.677Z,95802.38
2022-11-06T14:18:43.344Z,95813.88
2022-11-06T14:21:52.103Z,95813.88
2022-11-06T14:24:59.975Z,95816.72
2022-11-06T14:28:05.201Z,95820.69
2022-11-06T14:31:14.029Z,95824.53
2022-11-06T14:34:32.063Z,95807.19
2022-11-06T14:37:33.549Z,95815.34
2022-11-06T14:40:36.403Z,95811.84
2022-11-06T14:43:38.044Z,95805.16
2022-11-06T14:46:39.870Z,95804.69
2022-11-06T14:49:48.595Z,95806.66
2022-11-06T14:52:55.604Z,95806.31
2022-11-06T14:56:09.640Z,95805.97
2022-11-06T14:59:28.836Z,95807.28
2022-11-06T15:02:33.507Z,95826.13
2022-11-06T15:05:42.025Z,95836.09
2022-11-06T15:08:46.798Z,95833.78
2022-11-06T15:11:49.387Z,95834.09
2022-11-06T15:14:53.878Z,95836.06
2022-11-06T15:17:58.242Z,95833.59
2022-11-06T15:21:03.791Z,95828.56
2022-11-06T15:24:22.560Z,95826.41
2022-11-06T15:27:30.730Z,95817.38
2022-11-06T15:30:46.032Z,95823.16
2022-11-06T15:33:56.804Z,95831.81
2022-11-06T15:37:11.900Z,95829.78
2022-11-06T15:40:34.291Z,95819.06
2022-11-06T15:43:37.470Z,95809.38
2022-11-06T15:46:52.837Z,95811.84
2022-11-06T15:50:13.615Z,95823.25
2022-11-06T15:53:15.423Z,95819.72
2022-11-06T15:56:20.562Z,95817.84
2022-11-06T15:59:22.147Z,95805.97
2022-11-06T16:02:23.900Z,95815.56
2022-11-06T16:05:28.510Z,95803.22
2022-11-06T16:08:31.515Z,95806.94
2022-11-06T16:11:34.216Z,95819.41
2022-11-06T16:14:40.690Z,95833.34
2022-11-06T16:17:46.177Z,95833.28
2022-11-06T16:20:50.947Z,95836.69
2022-11-06T16:23:59.242Z,95840.25
2022-11-06T16:27:05.452Z,95841.84
2022-11-06T16:30:07.802Z,95840.66
2022-11-06T16:33:21.397Z,95826.28
2022-11-06T16:36:24.047Z,95827.72
2022-11-06T16:39:40.138Z,95831.69
2022-11-06T16:43:02.474Z,95844.72
2022-11-06T16:46:08.270Z,95842.97
2022-11-06T16:49:33.153Z,95850.25
2022-11-06T16:52:39.821Z,95841.91
2022-11-06T16:55:41.476Z,95840.66
2022-11-06T16:59:11.369Z,95843.63
2022-11-06T17:02:22.801Z,95839.75
2022-11-06T17:05:27.542Z,95835.84
2022-11-06T17:08:36.648Z,95841.47
2022-11-06T17:11:38.776Z,95843.75
2022-11-06T17:14:44.622Z,95839.69
2022-11-06T17:17:46.332Z,95836.66
2022-11-06T17:20:52.415Z,95844.63
2022-11-06T17:23:54.063Z,95840.72
2022-11-06T17:26:55.648Z,95855.13
2022-11-06T17:29:57.235Z,95857.09
2022-11-06T17:32:58.748Z,95853.91
2022-11-06T17:36:00.461Z,95844.41
2022-11-06T17:39:02.696Z,95855.28
2022-11-06T17:42:04.295Z,95856.44
2022-11-06T17:45:06.096Z,95863.69
2022-11-06T17:48:07.672Z,95864.69
2022-11-06T17:51:27.770Z,95873.63
2022-11-06T17:54:34.464Z,95872.78
2022-11-06T17:57:36.082Z,95868.47
2022-11-06T18:00:39.503Z,95882.59
2022-11-06T18:03:45.138Z,95885.38
2022-11-06T18:06:49.023Z,95880.75
2022-11-06T18:09:50.529Z,95878.25
2022-11-06T18:12:52.400Z,95873.63
2022-11-06T18:15:54.049Z,95875.28
2022-11-06T18:18:56.737Z,95877.13
2022-11-06T18:22:03.819Z,95877.13
2022-11-06T18:25:07.959Z,95876.28
2022-11-06T18:28:10.188Z,95877.13
2022-11-06T18:31:11.767Z,95877.94
2022-11-06T18:34:20.247Z,95871.81
2022-11-06T18:37:25.593Z,95871.66
2022-11-06T18:40:27.449Z,95873.47
2022-11-06T18:43:29.139Z,95882.84
2022-11-06T18:46:30.840Z,95875.72
2022-11-06T18:49:32.331Z,95880.19
2022-11-06T18:52:56.443Z,95874.72
2022-11-06T18:55:55.322Z,95884.34
2022-11-06T18:58:56.918Z,95879.75
2022-11-06T19:01:58.670Z,95881.56
2022-11-06T19:05:00.965Z,95885.91
2022-11-06T19:08:03.802Z,95886.75
2022-11-06T19:11:07.500Z,95897.22
2022-11-06T19:14:09.148Z,95892.88
2022-11-06T19:17:10.722Z,95893.72
2022-11-06T19:20:14.930Z,95895.41
2022-11-06T19:23:17.015Z,95887.44
2022-11-06T19:26:31.015Z,95896.06
2022-11-06T19:29:33.136Z,95911.88
2022-11-06T19:32:34.792Z,95928.50
2022-11-06T19:35:36.357Z,95926.53
2022-11-06T19:38:37.911Z,95919.13
2022-11-06T19:41:39.455Z,95936.03
2022-11-06T19:44:40.973Z,95923.59
2022-11-06T19:47:42.556Z,95923.44
2022-11-06T19:51:04.460Z,95919.94
2022-11-06T19:54:06.072Z,95924.41
2022-11-06T19:57:28.246Z,95933.09
2022-11-06T20:00:29.283Z,95933.09
2022-11-06T20:03:30.845Z,95940.22
2022-11-06T20:06:32.482Z,95942.72
2022-11-06T20:09:34.643Z,95937.94
2022-11-06T20:12:36.207Z,95939.50
2022-11-06T20:15:37.824Z,95938.06
2022-11-06T20:18:39.566Z,95939.88
2022-11-06T20:21:41.331Z,95942.28
2022-11-06T20:24:42.857Z,95946.44
2022-11-06T20:27:44.488Z,95949.78
2022-11-06T20:30:46.997Z,95951.47
2022-11-06T20:33:49.537Z,95946.00
2022-11-06T20:36:51.076Z,95962.34
2022-11-06T20:39:52.665Z,95951.44
2022-11-06T20:42:54.191Z,95965.25
2022-11-06T20:45:59.162Z,95964.28
2022-11-06T20:49:00.775Z,95969.28
2022-11-06T20:52:15.513Z,95953.09
2022-11-06T20:55:18.840Z,95946.53
2022-11-06T20:58:23.738Z,95947.94
2022-11-06T21:02:02.059Z,95974.72
2022-11-06T21:05:06.803Z,95964.91
2022-11-06T21:08:09.108Z,95975.97
2022-11-06T21:11:26.737Z,95987.13
2022-11-06T21:14:32.216Z,95993.06
2022-11-06T21:17:38.705Z,95996.28
2022-11-06T21:20:53.538Z,96008.00
2022-11-06T21:24:11.176Z,95998.50
2022-11-06T21:27:12.996Z,95999.47
2022-11-06T21:30:25.994Z,96012.22
2022-11-06T21:33:31.126Z,96035.34
2022-11-06T21:36:44.611Z,96047.38
2022-11-06T21:39:55.911Z,96019.97
2022-11-06T21:43:04.366Z,96048.88
2022-11-06T21:46:18.701Z,96069.00
2022-11-06T21:53:15.215Z,96058.75
2022-11-06T21:57:06.606Z,96057.84
2022-11-06T22:01:04.492Z,96066.38
2022-11-06T22:04:20.333Z,96050.72
2022-11-06T22:08:01.266Z,96059.91
2022-11-06T22:11:24.598Z,96061.88
2022-11-06T22:14:34.547Z,96061.03
2022-11-06T22:17:37.990Z,96073.22
2022-11-06T22:20:43.136Z,96045.44
2022-11-06T22:24:26.841Z,96065.66
2022-11-06T22:27:28.637Z,96042.09
2022-11-06T22:30:30.429Z,96056.31
2022-11-06T22:33:36.051Z,96048.56
2022-11-06T22:36:45.057Z,96040.13
2022-11-06T22:39:52.814Z,96036.47
2022-11-06T22:42:57.469Z,96022.09
2022-11-06T22:46:01.262Z,96023.78
2022-11-06T22:49:04.327Z,96017.75
2022-11-06T22:52:06.268Z,96026.13
2022-11-06T22:55:08.691Z,96030.59
2022-11-06T22:58:12.811Z,96045.16
2022-11-06T23:01:34.961Z,96045.38
2022-11-06T23:04:47.172Z,96058.22
2022-11-06T23:07:54.126Z,96043.00
2022-11-06T23:10:59.266Z,96070.25
2022-11-06T23:14:09.210Z,96060.16
2022-11-06T23:17:14.016Z,96062.66
2022-11-06T23:20:15.966Z,96062.50
2022-11-06T23:23:17.837Z,96049.88
2022-11-06T23:26:22.641Z,96045.25
2022-11-06T23:29:24.633Z,96046.47
2022-11-06T23:32:32.760Z,96060.41
2022-11-06T23:35:34.580Z,96052.25
2022-11-06T23:38:39.522Z,96060.22
2022-11-06T23:41:46.251Z,96062.31
2022-11-06T23:45:09.780Z,96064.69
2022-11-06T23:48:13.495Z,96048.50
2022-11-06T23:51:15.477Z,96070.94
2022-11-06T23:54:17.704Z,96066.44
2022-11-06T23:57:24.571Z,96066.13
